Sorensen Miller — WDD2540 — position and weather

sailwx.info

Track history (hours):
 
Tides and Currents Weather Stations Pressure Air Temp Water Temp Dewpoint Dewpoint Depression Visibility Wind Speed Wind Dir Waves Ship Positions

Sorensen Miller

Owner: Miller's Tug & Barge, Staten Island, NY. More information available from US FCC via Universal Licensing System and Coast Guard Vessel Documentation Center.

Last reported at 2018-Feb-14 18:28 UTC. Time now 2018-Feb-21 03:53 UTC.
Position N 40°38' W 074°04'.

; draft 3 m.

Type: . MMSI: 367116570.

Date/timePositionNaut miles runAvg speedWind from/ knotsBaromVisibWave heightAir tempDewpointWater temp
2018-Feb-14 18:28N 40°38' W 074°04'613.1
2018-Feb-14 18:00N 40°32' W 074°01'6 2.1
2018-Feb-14 14:57N 40°31' W 073°52'512.0
2018-Feb-14 14:30N 40°31' W 073°59'713.9
2018-Feb-14 14:00N 40°37' W 074°04'1 1.7
2018-Feb-14 13:29N 40°38' W 074°04'0 0.0
2018-Feb-14 13:00N 40°38' W 074°04'  
2018-Feb-11 00:14N 40°38' W 074°04'1 3.3
2018-Feb-11 00:00N 40°38' W 074°04'814.4
2018-Feb-10 23:29N 40°31' W 073°58'6 1.1
2018-Feb-10 18:14N 40°31' W 073°50'415.6
2018-Feb-10 17:59N 40°31' W 073°55'613.0
2018-Feb-10 17:30N 40°35' W 074°02'4 7.9
2018-Feb-10 17:00N 40°38' W 074°04'0 0.0
2018-Feb-10 16:30N 40°38' W 074°04'0 0.0
2018-Feb-10 16:00N 40°38' W 074°04'0 0.3
2018-Feb-10 15:30N 40°38' W 074°04'3 5.2
2018-Feb-10 15:00N 40°39' W 074°08'3 6.3
2018-Feb-10 14:30N 40°38' W 074°12'0 0.0
2018-Feb-10 13:58N 40°38' W 074°12'2 3.6
2018-Feb-10 13:30N 40°39' W 074°10'4 8.5
2018-Feb-10 13:00N 40°38' W 074°04'0 0.1
2018-Feb-10 12:30N 40°38' W 074°04'0 0.1
2018-Feb-10 12:00N 40°38' W 074°04'0 0.0
2018-Feb-10 11:30N 40°38' W 074°04'0 0.0
2018-Feb-10 11:00N 40°38' W 074°04'0 0.0
2018-Feb-10 10:30N 40°38' W 074°04'0 0.0
2018-Feb-10 10:00N 40°38' W 074°04'0 0.0
2018-Feb-10 09:30N 40°38' W 074°04'0 0.0
2018-Feb-10 09:00N 40°38' W 074°04'0 0.1
2018-Feb-10 08:30N 40°38' W 074°04'0 0.1
2018-Feb-10 08:00N 40°38' W 074°04'0 0.0
2018-Feb-10 07:30N 40°38' W 074°04'0 0.0
2018-Feb-10 07:00N 40°38' W 074°04'0 0.0
2018-Feb-10 06:30N 40°38' W 074°04'0 0.0
2018-Feb-10 06:00N 40°38' W 074°04'0 0.0
2018-Feb-10 05:30N 40°38' W 074°04'0 0.0
2018-Feb-10 05:00N 40°38' W 074°04'0 0.0
2018-Feb-10 04:31N 40°38' W 074°04'0 0.1
2018-Feb-10 04:00N 40°38' W 074°04'0 0.1
2018-Feb-10 03:30N 40°38' W 074°04'0 0.0
2018-Feb-10 03:00N 40°38' W 074°04'0 0.0
2018-Feb-10 02:30N 40°38' W 074°04'0 0.1
2018-Feb-10 02:00N 40°38' W 074°04'0 0.0
2018-Feb-10 01:30N 40°38' W 074°04'0 0.0
2018-Feb-10 00:59N 40°38' W 074°04'0 0.0
2018-Feb-10 00:30N 40°38' W 074°04'0 0.0
2018-Feb-10 00:00N 40°38' W 074°04'0 0.0
2018-Feb-09 23:30N 40°38' W 074°04'0 0.0
2018-Feb-09 23:00N 40°38' W 074°04'0 0.0
2018-Feb-09 22:46N 40°38' W 074°04'0 0.0
2018-Feb-09 18:31N 40°38' W 074°04'0 0.0
2018-Feb-09 14:01N 40°38' W 074°04'0 0.0
2018-Feb-09 13:01N 40°38' W 074°04'0 0.0
2018-Feb-09 12:01N 40°38' W 074°04'0 0.1
2018-Feb-09 11:01N 40°38' W 074°04'0 0.0
2018-Feb-09 09:31N 40°38' W 074°04'0 0.0
2018-Feb-09 08:01N 40°38' W 074°04'0 0.1
2018-Feb-09 07:30N 40°38' W 074°04'0 0.0
2018-Feb-09 06:01N 40°38' W 074°04'0 0.0
2018-Feb-09 05:31N 40°38' W 074°04'0 0.0
2018-Feb-09 03:31N 40°38' W 074°04'0 0.0
2018-Feb-09 02:00N 40°38' W 074°04'0 0.0
2018-Feb-08 20:00N 40°38' W 074°04'0 0.0
2018-Feb-08 08:30N 40°38' W 074°04'0 0.0
2018-Feb-08 06:00N 40°38' W 074°04'0 0.0
2018-Feb-08 04:00N 40°38' W 074°04'0 0.0
2018-Feb-08 03:30N 40°38' W 074°04'0 0.1
2018-Feb-08 03:00N 40°38' W 074°04'0 0.0
2018-Feb-08 01:30N 40°38' W 074°04'0 0.0
2018-Feb-08 01:00N 40°38' W 074°04'0 0.1
2018-Feb-08 00:31N 40°38' W 074°04'0 0.1
2018-Feb-08 00:00N 40°38' W 074°04'0 0.0
2018-Feb-07 23:30N 40°38' W 074°04'0 0.0
2018-Feb-07 23:01N 40°38' W 074°04'0 0.0
2018-Feb-07 22:30N 40°38' W 074°04'0 0.1
2018-Feb-07 22:00N 40°38' W 074°04'0 0.1
2018-Feb-07 21:31N 40°38' W 074°04'0 0.0
2018-Feb-07 09:30N 40°38' W 074°04'0 0.0
2018-Feb-07 09:00N 40°38' W 074°04'0 0.0
2018-Feb-07 08:30N 40°38' W 074°04'0 0.0
2018-Feb-07 08:01N 40°38' W 074°04'0 0.0
2018-Feb-07 07:29N 40°38' W 074°04'0 0.0
2018-Feb-07 06:59N 40°38' W 074°04'0 0.0
2018-Feb-07 06:30N 40°38' W 074°04'0 0.0
2018-Feb-07 05:59N 40°38' W 074°04'0 0.1
2018-Feb-07 05:30N 40°38' W 074°04'0 0.0
2018-Feb-07 05:00N 40°38' W 074°04'0 0.0
2018-Feb-07 04:30N 40°38' W 074°04'0 0.0
2018-Feb-07 04:00N 40°38' W 074°04'0 0.0
2018-Feb-07 03:30N 40°38' W 074°04'0 0.0
2018-Feb-07 03:00N 40°38' W 074°04'0 0.1
2018-Feb-07 02:30N 40°38' W 074°04'0 0.0
2018-Feb-07 02:00N 40°38' W 074°04'0 0.1
2018-Feb-07 01:31N 40°38' W 074°04'0 0.0
2018-Feb-07 01:00N 40°38' W 074°04'0 0.1
2018-Feb-07 00:30N 40°38' W 074°04'0 0.1
2018-Feb-07 00:00N 40°38' W 074°04'0 0.0
2018-Feb-06 23:29N 40°38' W 074°04'0 0.0
2018-Feb-06 23:00N 40°38' W 074°04'0 0.0
2018-Feb-06 22:30N 40°38' W 074°04'0 0.1
2018-Feb-06 22:00N 40°38' W 074°04'0 0.0
2018-Feb-06 20:29N 40°38' W 074°04'0 0.0
2018-Feb-06 20:01N 40°38' W 074°04'0 0.1
2018-Feb-06 19:00N 40°38' W 074°04'0 0.0
2018-Feb-06 18:30N 40°38' W 074°04'0 0.0
2018-Feb-06 18:00N 40°38' W 074°04'0 0.0
2018-Feb-06 17:30N 40°38' W 074°04'0 0.0
2018-Feb-06 17:00N 40°38' W 074°04'0 0.0
2018-Feb-06 16:30N 40°38' W 074°04'0 0.0
2018-Feb-06 16:00N 40°38' W 074°04'0 0.1
2018-Feb-06 15:30N 40°38' W 074°04'0 0.0
2018-Feb-06 15:00N 40°38' W 074°04'0 0.0
2018-Feb-06 14:30N 40°38' W 074°04'0 0.0
2018-Feb-06 14:00N 40°38' W 074°04'0 0.0
2018-Feb-06 13:30N 40°38' W 074°04'0 0.0
2018-Feb-06 13:00N 40°38' W 074°04'0 0.0
2018-Feb-06 12:00N 40°38' W 074°04'0 0.1
2018-Feb-06 11:29N 40°38' W 074°04'0 0.0
2018-Feb-06 11:00N 40°38' W 074°04'0 0.0
2018-Feb-06 10:30N 40°38' W 074°04'0 0.1
2018-Feb-06 09:30N 40°38' W 074°04'0 0.0
2018-Feb-06 08:30N 40°38' W 074°04'0 0.0
2018-Feb-06 08:00N 40°38' W 074°04'0 0.0
2018-Feb-06 07:30N 40°38' W 074°04'0 0.0
2018-Feb-06 07:00N 40°38' W 074°04'0 0.0
2018-Feb-06 06:30N 40°38' W 074°04'0 0.1
2018-Feb-06 06:00N 40°38' W 074°04'0 0.1
2018-Feb-06 05:30N 40°38' W 074°04'0 0.0
2018-Feb-06 04:00N 40°38' W 074°04'0 0.0
2018-Feb-06 03:30N 40°38' W 074°04'0 0.0
2018-Feb-06 03:00N 40°38' W 074°04'0 0.0
2018-Feb-06 02:30N 40°38' W 074°04'0 0.0
2018-Feb-06 01:59N 40°38' W 074°04'0 0.0
2018-Feb-06 01:00N 40°38' W 074°04'0 0.0
2018-Feb-06 00:30N 40°38' W 074°04'0 0.0
2018-Feb-06 00:00N 40°38' W 074°04'0 0.0
2018-Feb-05 23:30N 40°38' W 074°04'0 0.0
2018-Feb-05 23:00N 40°38' W 074°04'0 0.0
2018-Feb-05 22:30N 40°38' W 074°04'0 0.0
2018-Feb-05 22:00N 40°38' W 074°04'0 0.0
2018-Feb-05 21:00N 40°38' W 074°04'0 0.0
2018-Feb-05 20:28N 40°38' W 074°04'0 0.0
2018-Feb-05 20:00N 40°38' W 074°04'0 0.0
2018-Feb-05 19:30N 40°38' W 074°04'0 0.0
2018-Feb-05 19:00N 40°38' W 074°04'0 0.0
2018-Feb-05 18:30N 40°38' W 074°04'0 0.0
2018-Feb-05 18:00N 40°38' W 074°04'0 0.0
2018-Feb-05 17:30N 40°38' W 074°04'0 0.0
2018-Feb-05 17:00N 40°38' W 074°04'0 0.0
2018-Feb-05 16:30N 40°38' W 074°04'0 0.0
2018-Feb-05 16:00N 40°38' W 074°04'0 0.0
2018-Feb-05 15:30N 40°38' W 074°04'0 0.0
2018-Feb-05 14:30N 40°38' W 074°04'0 0.0
2018-Feb-05 13:30N 40°38' W 074°04'0 0.0
2018-Feb-05 13:00N 40°38' W 074°04'0 0.0
2018-Feb-05 11:30N 40°38' W 074°04'0 0.1
2018-Feb-05 11:00N 40°38' W 074°04'0 0.0
2018-Feb-05 10:30N 40°38' W 074°04'0 0.0
2018-Feb-05 10:00N 40°38' W 074°04'0 0.0
2018-Feb-05 09:30N 40°38' W 074°04'0 0.1
2018-Feb-05 09:00N 40°38' W 074°04'0 0.0
2018-Feb-05 08:31N 40°38' W 074°04'0 0.0
2018-Feb-05 08:01N 40°38' W 074°04'0 0.0
2018-Feb-05 07:29N 40°38' W 074°04'0 0.0
2018-Feb-05 06:59N 40°38' W 074°04'0 0.0
2018-Feb-05 06:30N 40°38' W 074°04'0 0.0
2018-Feb-05 05:30N 40°38' W 074°04'0 0.0
2018-Feb-05 05:01N 40°38' W 074°04'0 0.1
2018-Feb-05 04:30N 40°38' W 074°04'0 0.0
2018-Feb-05 04:01N 40°38' W 074°04'0 0.0
2018-Feb-05 03:30N 40°38' W 074°04'0 0.1
2018-Feb-05 03:00N 40°38' W 074°04'0 0.0
2018-Feb-05 02:30N 40°38' W 074°04'0 0.1
2018-Feb-05 02:00N 40°38' W 074°04'0 0.1
2018-Feb-05 01:30N 40°38' W 074°04'0 0.0
2018-Feb-05 01:00N 40°38' W 074°04'0 0.0
2018-Feb-05 00:30N 40°38' W 074°04'0 0.1
2018-Feb-05 00:00N 40°38' W 074°04'0 0.0
2018-Feb-04 23:30N 40°38' W 074°04'0 0.1
2018-Feb-04 23:00N 40°38' W 074°04'0 0.0
2018-Feb-04 22:30N 40°38' W 074°04'0 0.0
2018-Feb-04 22:00N 40°38' W 074°04'0 0.0
2018-Feb-04 21:30N 40°38' W 074°04'0 0.0
2018-Feb-04 21:00N 40°38' W 074°04'0 0.0
2018-Feb-04 20:00N 40°38' W 074°04'0 0.1
2018-Feb-04 19:30N 40°38' W 074°04'0 0.0
2018-Feb-04 19:00N 40°38' W 074°04'0 0.0
2018-Feb-04 18:30N 40°38' W 074°04'  
Track history (hours):
 
Tides and Currents Weather Stations Pressure Air Temp Water Temp Dewpoint Dewpoint Depression Visibility Wind Speed Wind Dir Waves Ship Positions

Sorensen Miller

Owner: Miller's Tug & Barge, Staten Island, NY. More information available from US FCC via Universal Licensing System and Coast Guard Vessel Documentation Center.

Last reported at 2018-Feb-14 18:28 UTC. Time now 2018-Feb-21 03:53 UTC.
Position N 40°38' W 074°04'.

; draft 3 m.

Type: . MMSI: 367116570.

Date/timePositionNaut miles runAvg speedWind from/ knotsBaromVisibWave heightAir tempDewpointWater temp
2018-Feb-14 18:28N 40°38' W 074°04'613.1
2018-Feb-14 18:00N 40°32' W 074°01'6 2.1
2018-Feb-14 14:57N 40°31' W 073°52'512.0
2018-Feb-14 14:30N 40°31' W 073°59'713.9
2018-Feb-14 14:00N 40°37' W 074°04'1 1.7
2018-Feb-14 13:29N 40°38' W 074°04'0 0.0
2018-Feb-14 13:00N 40°38' W 074°04'  
2018-Feb-11 00:14N 40°38' W 074°04'1 3.3
2018-Feb-11 00:00N 40°38' W 074°04'814.4
2018-Feb-10 23:29N 40°31' W 073°58'6 1.1
2018-Feb-10 18:14N 40°31' W 073°50'415.6
2018-Feb-10 17:59N 40°31' W 073°55'613.0
2018-Feb-10 17:30N 40°35' W 074°02'4 7.9
2018-Feb-10 17:00N 40°38' W 074°04'0 0.0
2018-Feb-10 16:30N 40°38' W 074°04'0 0.0
2018-Feb-10 16:00N 40°38' W 074°04'0 0.3
2018-Feb-10 15:30N 40°38' W 074°04'3 5.2
2018-Feb-10 15:00N 40°39' W 074°08'3 6.3
2018-Feb-10 14:30N 40°38' W 074°12'0 0.0
2018-Feb-10 13:58N 40°38' W 074°12'2 3.6
2018-Feb-10 13:30N 40°39' W 074°10'4 8.5
2018-Feb-10 13:00N 40°38' W 074°04'0 0.1
2018-Feb-10 12:30N 40°38' W 074°04'0 0.1
2018-Feb-10 12:00N 40°38' W 074°04'0 0.0
2018-Feb-10 11:30N 40°38' W 074°04'0 0.0
2018-Feb-10 11:00N 40°38' W 074°04'0 0.0
2018-Feb-10 10:30N 40°38' W 074°04'0 0.0
2018-Feb-10 10:00N 40°38' W 074°04'0 0.0
2018-Feb-10 09:30N 40°38' W 074°04'0 0.0
2018-Feb-10 09:00N 40°38' W 074°04'0 0.1
2018-Feb-10 08:30N 40°38' W 074°04'0 0.1
2018-Feb-10 08:00N 40°38' W 074°04'0 0.0
2018-Feb-10 07:30N 40°38' W 074°04'0 0.0
2018-Feb-10 07:00N 40°38' W 074°04'0 0.0
2018-Feb-10 06:30N 40°38' W 074°04'0 0.0
2018-Feb-10 06:00N 40°38' W 074°04'0 0.0
2018-Feb-10 05:30N 40°38' W 074°04'0 0.0
2018-Feb-10 05:00N 40°38' W 074°04'0 0.0
2018-Feb-10 04:31N 40°38' W 074°04'0 0.1
2018-Feb-10 04:00N 40°38' W 074°04'0 0.1
2018-Feb-10 03:30N 40°38' W 074°04'0 0.0
2018-Feb-10 03:00N 40°38' W 074°04'0 0.0
2018-Feb-10 02:30N 40°38' W 074°04'0 0.1
2018-Feb-10 02:00N 40°38' W 074°04'0 0.0
2018-Feb-10 01:30N 40°38' W 074°04'0 0.0
2018-Feb-10 00:59N 40°38' W 074°04'0 0.0
2018-Feb-10 00:30N 40°38' W 074°04'0 0.0
2018-Feb-10 00:00N 40°38' W 074°04'0 0.0
2018-Feb-09 23:30N 40°38' W 074°04'0 0.0
2018-Feb-09 23:00N 40°38' W 074°04'0 0.0
2018-Feb-09 22:46N 40°38' W 074°04'0 0.0
2018-Feb-09 18:31N 40°38' W 074°04'0 0.0
2018-Feb-09 14:01N 40°38' W 074°04'0 0.0
2018-Feb-09 13:01N 40°38' W 074°04'0 0.0
2018-Feb-09 12:01N 40°38' W 074°04'0 0.1
2018-Feb-09 11:01N 40°38' W 074°04'0 0.0
2018-Feb-09 09:31N 40°38' W 074°04'0 0.0
2018-Feb-09 08:01N 40°38' W 074°04'0 0.1
2018-Feb-09 07:30N 40°38' W 074°04'0 0.0
2018-Feb-09 06:01N 40°38' W 074°04'0 0.0
2018-Feb-09 05:31N 40°38' W 074°04'0 0.0
2018-Feb-09 03:31N 40°38' W 074°04'0 0.0
2018-Feb-09 02:00N 40°38' W 074°04'0 0.0
2018-Feb-08 20:00N 40°38' W 074°04'0 0.0
2018-Feb-08 08:30N 40°38' W 074°04'0 0.0
2018-Feb-08 06:00N 40°38' W 074°04'0 0.0
2018-Feb-08 04:00N 40°38' W 074°04'0 0.0
2018-Feb-08 03:30N 40°38' W 074°04'0 0.1
2018-Feb-08 03:00N 40°38' W 074°04'0 0.0
2018-Feb-08 01:30N 40°38' W 074°04'0 0.0
2018-Feb-08 01:00N 40°38' W 074°04'0 0.1
2018-Feb-08 00:31N 40°38' W 074°04'0 0.1
2018-Feb-08 00:00N 40°38' W 074°04'0 0.0
2018-Feb-07 23:30N 40°38' W 074°04'0 0.0
2018-Feb-07 23:01N 40°38' W 074°04'0 0.0
2018-Feb-07 22:30N 40°38' W 074°04'0 0.1
2018-Feb-07 22:00N 40°38' W 074°04'0 0.1
2018-Feb-07 21:31N 40°38' W 074°04'0 0.0
2018-Feb-07 09:30N 40°38' W 074°04'0 0.0
2018-Feb-07 09:00N 40°38' W 074°04'0 0.0
2018-Feb-07 08:30N 40°38' W 074°04'0 0.0
2018-Feb-07 08:01N 40°38' W 074°04'0 0.0
2018-Feb-07 07:29N 40°38' W 074°04'0 0.0
2018-Feb-07 06:59N 40°38' W 074°04'0 0.0
2018-Feb-07 06:30N 40°38' W 074°04'0 0.0
2018-Feb-07 05:59N 40°38' W 074°04'0 0.1
2018-Feb-07 05:30N 40°38' W 074°04'0 0.0
2018-Feb-07 05:00N 40°38' W 074°04'0 0.0
2018-Feb-07 04:30N 40°38' W 074°04'0 0.0
2018-Feb-07 04:00N 40°38' W 074°04'0 0.0
2018-Feb-07 03:30N 40°38' W 074°04'0 0.0
2018-Feb-07 03:00N 40°38' W 074°04'0 0.1
2018-Feb-07 02:30N 40°38' W 074°04'0 0.0
2018-Feb-07 02:00N 40°38' W 074°04'0 0.1
2018-Feb-07 01:31N 40°38' W 074°04'0 0.0
2018-Feb-07 01:00N 40°38' W 074°04'0 0.1
2018-Feb-07 00:30N 40°38' W 074°04'0 0.1
2018-Feb-07 00:00N 40°38' W 074°04'0 0.0
2018-Feb-06 23:29N 40°38' W 074°04'0 0.0
2018-Feb-06 23:00N 40°38' W 074°04'0 0.0
2018-Feb-06 22:30N 40°38' W 074°04'0 0.1
2018-Feb-06 22:00N 40°38' W 074°04'0 0.0
2018-Feb-06 20:29N 40°38' W 074°04'0 0.0
2018-Feb-06 20:01N 40°38' W 074°04'0 0.1
2018-Feb-06 19:00N 40°38' W 074°04'0 0.0
2018-Feb-06 18:30N 40°38' W 074°04'0 0.0
2018-Feb-06 18:00N 40°38' W 074°04'0 0.0
2018-Feb-06 17:30N 40°38' W 074°04'0 0.0
2018-Feb-06 17:00N 40°38' W 074°04'0 0.0
2018-Feb-06 16:30N 40°38' W 074°04'0 0.0
2018-Feb-06 16:00N 40°38' W 074°04'0 0.1
2018-Feb-06 15:30N 40°38' W 074°04'0 0.0
2018-Feb-06 15:00N 40°38' W 074°04'0 0.0
2018-Feb-06 14:30N 40°38' W 074°04'0 0.0
2018-Feb-06 14:00N 40°38' W 074°04'0 0.0
2018-Feb-06 13:30N 40°38' W 074°04'0 0.0
2018-Feb-06 13:00N 40°38' W 074°04'0 0.0
2018-Feb-06 12:00N 40°38' W 074°04'0 0.1
2018-Feb-06 11:29N 40°38' W 074°04'0 0.0
2018-Feb-06 11:00N 40°38' W 074°04'0 0.0
2018-Feb-06 10:30N 40°38' W 074°04'0 0.1
2018-Feb-06 09:30N 40°38' W 074°04'0 0.0
2018-Feb-06 08:30N 40°38' W 074°04'0 0.0
2018-Feb-06 08:00N 40°38' W 074°04'0 0.0
2018-Feb-06 07:30N 40°38' W 074°04'0 0.0
2018-Feb-06 07:00N 40°38' W 074°04'0 0.0
2018-Feb-06 06:30N 40°38' W 074°04'0 0.1
2018-Feb-06 06:00N 40°38' W 074°04'0 0.1
2018-Feb-06 05:30N 40°38' W 074°04'0 0.0
2018-Feb-06 04:00N 40°38' W 074°04'0 0.0
2018-Feb-06 03:30N 40°38' W 074°04'0 0.0
2018-Feb-06 03:00N 40°38' W 074°04'0 0.0
2018-Feb-06 02:30N 40°38' W 074°04'0 0.0
2018-Feb-06 01:59N 40°38' W 074°04'0 0.0
2018-Feb-06 01:00N 40°38' W 074°04'0 0.0
2018-Feb-06 00:30N 40°38' W 074°04'0 0.0
2018-Feb-06 00:00N 40°38' W 074°04'0 0.0
2018-Feb-05 23:30N 40°38' W 074°04'0 0.0
2018-Feb-05 23:00N 40°38' W 074°04'0 0.0
2018-Feb-05 22:30N 40°38' W 074°04'0 0.0
2018-Feb-05 22:00N 40°38' W 074°04'0 0.0
2018-Feb-05 21:00N 40°38' W 074°04'0 0.0
2018-Feb-05 20:28N 40°38' W 074°04'0 0.0
2018-Feb-05 20:00N 40°38' W 074°04'0 0.0
2018-Feb-05 19:30N 40°38' W 074°04'0 0.0
2018-Feb-05 19:00N 40°38' W 074°04'0 0.0
2018-Feb-05 18:30N 40°38' W 074°04'0 0.0
2018-Feb-05 18:00N 40°38' W 074°04'0 0.0
2018-Feb-05 17:30N 40°38' W 074°04'0 0.0
2018-Feb-05 17:00N 40°38' W 074°04'0 0.0
2018-Feb-05 16:30N 40°38' W 074°04'0 0.0
2018-Feb-05 16:00N 40°38' W 074°04'0 0.0
2018-Feb-05 15:30N 40°38' W 074°04'0 0.0
2018-Feb-05 14:30N 40°38' W 074°04'0 0.0
2018-Feb-05 13:30N 40°38' W 074°04'0 0.0
2018-Feb-05 13:00N 40°38' W 074°04'0 0.0
2018-Feb-05 11:30N 40°38' W 074°04'0 0.1
2018-Feb-05 11:00N 40°38' W 074°04'0 0.0
2018-Feb-05 10:30N 40°38' W 074°04'0 0.0
2018-Feb-05 10:00N 40°38' W 074°04'0 0.0
2018-Feb-05 09:30N 40°38' W 074°04'0 0.1
2018-Feb-05 09:00N 40°38' W 074°04'0 0.0
2018-Feb-05 08:31N 40°38' W 074°04'0 0.0
2018-Feb-05 08:01N 40°38' W 074°04'0 0.0
2018-Feb-05 07:29N 40°38' W 074°04'0 0.0
2018-Feb-05 06:59N 40°38' W 074°04'0 0.0
2018-Feb-05 06:30N 40°38' W 074°04'0 0.0
2018-Feb-05 05:30N 40°38' W 074°04'0 0.0
2018-Feb-05 05:01N 40°38' W 074°04'0 0.1
2018-Feb-05 04:30N 40°38' W 074°04'0 0.0
2018-Feb-05 04:01N 40°38' W 074°04'0 0.0
2018-Feb-05 03:30N 40°38' W 074°04'0 0.1
2018-Feb-05 03:00N 40°38' W 074°04'0 0.0
2018-Feb-05 02:30N 40°38' W 074°04'0 0.1
2018-Feb-05 02:00N 40°38' W 074°04'0 0.1
2018-Feb-05 01:30N 40°38' W 074°04'0 0.0
2018-Feb-05 01:00N 40°38' W 074°04'0 0.0
2018-Feb-05 00:30N 40°38' W 074°04'0 0.1
2018-Feb-05 00:00N 40°38' W 074°04'0 0.0
2018-Feb-04 23:30N 40°38' W 074°04'0 0.1
2018-Feb-04 23:00N 40°38' W 074°04'0 0.0
2018-Feb-04 22:30N 40°38' W 074°04'0 0.0
2018-Feb-04 22:00N 40°38' W 074°04'0 0.0
2018-Feb-04 21:30N 40°38' W 074°04'0 0.0
2018-Feb-04 21:00N 40°38' W 074°04'0 0.0
2018-Feb-04 20:00N 40°38' W 074°04'0 0.1
2018-Feb-04 19:30N 40°38' W 074°04'0 0.0
2018-Feb-04 19:00N 40°38' W 074°04'0 0.0
2018-Feb-04 18:30N 40°38' W 074°04'  

Dump ship's entire track history